Terminal Aerodrome Forecast
Issued by NWS Amarillo, TX

Home | Current Version | Previous Version | Text Only | Print | Product List | Glossary On
Versions: 1 2 3 4 5 6 7 8 9 10 11 12 13 14 15 16 17
000
FTUS44 KAMA 242336
TAFDHT
TAF
KDHT 242336Z 2500/2524 23015KT P6SM BKN300
     FM250300 26012KT P6SM BKN300
     FM251400 25016G26KT P6SM BKN120
     FM252200 35016G26KT P6SM OVC120=

USA.gov is the U.S. government's official web portal to all federal, state and local government web resources and services.